Time;durP1;ratioP1;P1;durP2;ratioP2;P2;SDS_P1;SDS_P2;PMS_P1;PMS_P2;Temp;Humidity;BMP_temperature;BMP_pressure;BME280_temperature;BME280_humidity;BME280_pressure;Samples;Min_cycle;Max_cycle;Signal;HPM_P1;HPM_P2
2023/01/07 00:01:16;;;;;;;17.60;12.00;;;10.80;99.90;;;;;;5089126;28;20051;-74
2023/01/07 00:03:45;;;;;;;17.63;10.65;;;10.80;99.90;;;;;;5090131;28;20540;-74
2023/01/07 00:06:18;;;;;;;14.88;10.45;;;10.80;99.90;;;;;;5085090;28;20055;-74
2023/01/07 00:08:47;;;;;;;18.42;10.32;;;10.90;99.90;;;;;;5075937;28;20125;-73
2023/01/07 00:11:18;;;;;;;17.60;12.07;;;11.00;99.90;;;;;;5089394;28;20444;-74
2023/01/07 00:13:49;;;;;;;20.77;12.82;;;11.00;99.90;;;;;;5074307;28;20081;-73
2023/01/07 00:16:18;;;;;;;20.58;13.15;;;11.00;99.90;;;;;;5079864;28;20045;-73
2023/01/07 00:18:46;;;;;;;19.58;12.73;;;10.90;99.90;;;;;;5073921;28;20087;-73
2023/01/07 00:21:15;;;;;;;18.25;11.10;;;11.00;99.90;;;;;;5084864;28;20824;-73
2023/01/07 00:23:44;;;;;;;17.13;12.15;;;11.10;99.90;;;;;;5087625;28;20119;-73
2023/01/07 00:26:13;;;;;;;19.60;12.00;;;11.10;99.90;;;;;;5068979;28;20048;-74
2023/01/07 00:28:42;;;;;;;18.75;10.88;;;11.10;99.90;;;;;;5081483;28;20490;-73
2023/01/07 00:31:16;;;;;;;15.77;9.80;;;11.10;99.90;;;;;;5047991;28;20056;-73
2023/01/07 00:34:05;;;;;;;18.45;12.07;;;11.20;99.90;;;;;;5061657;28;20193;-73
2023/01/07 00:36:42;;;;;;;23.77;12.35;;;11.20;99.90;;;;;;5091450;28;20035;-73
2023/01/07 00:39:13;;;;;;;15.60;10.73;;;11.20;99.90;;;;;;5080068;28;20036;-73
2023/01/07 00:44:29;;;;;;;16.25;11.30;;;11.10;99.90;;;;;;5027691;28;20131;-73
2023/01/07 00:46:58;;;;;;;17.33;11.52;;;11.20;99.90;;;;;;5093817;28;20154;-73
2023/01/07 00:49:25;;;;;;;19.33;11.05;;;11.20;99.90;;;;;;5076263;28;20120;-73
2023/01/07 00:51:53;;;;;;;18.95;11.45;;;11.20;99.90;;;;;;5087383;28;20077;-73
2023/01/07 00:54:21;;;;;;;16.45;10.18;;;11.30;99.90;;;;;;5089735;28;20075;-73
2023/01/07 00:56:49;;;;;;;19.00;11.45;;;11.30;99.90;;;;;;5074311;28;20380;-73
2023/01/07 00:59:16;;;;;;;15.32;9.57;;;11.30;99.90;;;;;;5092986;28;20039;-73
2023/01/07 01:01:44;;;;;;;17.73;11.38;;;11.30;99.90;;;;;;5070581;28;20036;-73
2023/01/07 01:04:12;;;;;;;16.23;10.02;;;11.30;99.90;;;;;;5085034;28;20134;-73
2023/01/07 01:06:40;;;;;;;19.02;10.45;;;11.30;99.90;;;;;;5075247;28;20048;-73
2023/01/07 01:09:07;;;;;;;15.10;10.35;;;11.20;99.90;;;;;;5060547;28;20116;-72
2023/01/07 01:11:35;;;;;;;19.60;10.80;;;11.20;99.90;;;;;;5071790;28;20737;-73
2023/01/07 01:14:02;;;;;;;21.20;11.30;;;11.30;99.90;;;;;;5093764;28;20499;-74
2023/01/07 01:16:30;;;;;;;18.23;11.60;;;11.30;99.90;;;;;;5077337;28;20122;-73
2023/01/07 01:18:58;;;;;;;16.42;9.73;;;11.30;99.90;;;;;;5083184;28;20048;-73
2023/01/07 01:21:25;;;;;;;15.95;10.73;;;11.30;99.90;;;;;;5076814;28;20371;-73
2023/01/07 01:23:54;;;;;;;16.67;10.57;;;11.30;99.90;;;;;;5092633;28;20035;-74
2023/01/07 01:26:21;;;;;;;23.10;12.18;;;11.30;99.90;;;;;;5069813;28;20044;-73
2023/01/07 01:28:49;;;;;;;16.98;10.13;;;11.30;99.90;;;;;;5098730;28;20051;-73
2023/01/07 01:31:21;;;;;;;14.65;10.45;;;11.30;99.90;;;;;;5094109;28;20060;-74
2023/01/07 01:33:55;;;;;;;19.10;11.80;;;11.30;99.90;;;;;;5082918;28;20455;-73
2023/01/07 01:36:24;;;;;;;29.33;10.48;;;11.30;99.90;;;;;;5084129;28;20052;-73
2023/01/07 01:38:56;;;;;;;15.88;10.60;;;11.30;99.90;;;;;;5086994;28;20060;-72
2023/01/07 01:41:26;;;;;;;18.10;11.73;;;11.30;99.90;;;;;;5074244;28;20044;-72
2023/01/07 01:43:55;;;;;;;17.00;10.48;;;11.30;99.90;;;;;;5087236;28;20059;-73
2023/01/07 01:46:39;;;;;;;17.42;11.27;;;11.20;99.90;;;;;;5083547;28;20036;-73
2023/01/07 01:49:21;;;;;;;20.10;11.77;;;11.30;99.90;;;;;;5075009;28;20400;-73
2023/01/07 01:52:01;;;;;;;17.33;10.60;;;11.20;99.90;;;;;;5082126;28;20040;-73
2023/01/07 01:54:28;;;;;;;16.77;11.35;;;11.20;99.90;;;;;;5075788;28;20735;-73
2023/01/07 01:57:00;;;;;;;20.15;10.75;;;11.20;99.90;;;;;;5073790;28;20190;-73
2023/01/07 01:59:33;;;;;;;18.98;10.35;;;11.20;99.90;;;;;;5073686;28;20036;-73
2023/01/07 02:02:05;;;;;;;15.77;10.57;;;11.20;99.90;;;;;;5080227;28;20068;-74
2023/01/07 02:04:34;;;;;;;15.98;10.23;;;11.10;99.90;;;;;;5067981;28;20518;-74
2023/01/07 02:07:15;;;;;;;20.25;12.23;;;11.10;99.90;;;;;;5091349;28;20059;-74
2023/01/07 02:10:14;;;;;;;16.77;10.20;;;11.10;99.90;;;;;;5088224;28;20719;-73
2023/01/07 02:13:16;;;;;;;21.70;10.05;;;11.10;99.90;;;;;;5085078;28;20047;-73
2023/01/07 02:15:49;;;;;;;15.85;10.70;;;11.10;99.90;;;;;;5057290;28;20052;-73
2023/01/07 02:18:17;;;;;;;15.43;10.50;;;11.10;99.90;;;;;;5073030;28;20044;-73
2023/01/07 02:21:12;;;;;;;17.27;12.00;;;11.10;99.90;;;;;;5077077;28;20068;-73
2023/01/07 02:24:05;;;;;;;17.67;11.23;;;11.10;99.90;;;;;;5076875;28;20076;-73
2023/01/07 02:26:51;;;;;;;21.10;13.07;;;11.10;99.90;;;;;;5061978;28;20047;-73
2023/01/07 02:29:47;;;;;;;19.10;12.05;;;11.10;99.90;;;;;;5082434;28;20397;-74
2023/01/07 02:32:30;;;;;;;18.43;11.77;;;11.10;99.90;;;;;;5071054;28;20047;-73
2023/01/07 02:35:28;;;;;;;21.50;11.68;;;11.10;99.90;;;;;;5078870;28;20063;-73
2023/01/07 02:38:24;;;;;;;17.20;9.73;;;11.10;99.90;;;;;;5071926;28;20041;-73
2023/01/07 02:41:04;;;;;;;21.52;11.10;;;11.10;99.90;;;;;;5089842;28;20169;-73
2023/01/07 02:43:38;;;;;;;19.13;11.30;;;11.10;99.90;;;;;;5088033;28;20036;-73
2023/01/07 02:46:20;;;;;;;21.08;13.30;;;11.10;99.90;;;;;;5090453;28;20062;-73
2023/01/07 02:48:48;;;;;;;16.23;10.77;;;11.10;99.90;;;;;;5089785;28;20141;-73
2023/01/07 02:51:15;;;;;;;19.95;11.23;;;11.10;99.90;;;;;;5089830;28;20044;-74
2023/01/07 02:53:47;;;;;;;19.75;10.82;;;11.00;99.90;;;;;;5081369;28;20047;-73
2023/01/07 02:56:27;;;;;;;15.40;10.05;;;11.00;99.90;;;;;;5058241;28;20147;-73
2023/01/07 02:59:07;;;;;;;23.40;12.18;;;11.00;99.90;;;;;;5045098;28;20442;-73
2023/01/07 03:01:52;;;;;;;20.45;11.50;;;11.00;99.90;;;;;;5078916;28;20105;-73
2023/01/07 03:04:41;;;;;;;17.83;10.63;;;11.00;99.90;;;;;;5079347;28;20052;-73
2023/01/07 03:07:33;;;;;;;17.52;11.38;;;11.00;99.90;;;;;;5068425;28;20051;-73
2023/01/07 03:10:25;;;;;;;18.20;11.43;;;11.00;99.90;;;;;;5064637;28;20131;-73
2023/01/07 03:12:56;;;;;;;19.77;12.73;;;11.00;99.90;;;;;;5081219;28;20047;-73
2023/01/07 03:15:30;;;;;;;18.10;11.30;;;11.00;99.90;;;;;;5077289;28;20040;-73
2023/01/07 03:18:07;;;;;;;16.63;11.27;;;11.00;99.90;;;;;;5083293;28;20118;-73
2023/01/07 03:20:38;;;;;;;19.05;11.55;;;11.00;99.90;;;;;;5068623;28;20048;-73
2023/01/07 03:23:08;;;;;;;20.38;11.95;;;11.00;99.90;;;;;;5080286;28;20460;-73
2023/01/07 03:25:42;;;;;;;15.90;11.57;;;11.00;99.90;;;;;;5086642;28;20050;-73
2023/01/07 03:28:14;;;;;;;19.02;12.38;;;10.90;99.90;;;;;;5077242;28;20129;-73
2023/01/07 03:30:43;;;;;;;17.00;10.18;;;10.90;99.90;;;;;;5069199;28;20185;-73
2023/01/07 03:33:45;;;;;;;19.42;11.40;;;10.90;99.90;;;;;;5083628;28;20047;-73
2023/01/07 03:36:17;;;;;;;18.58;10.50;;;10.90;99.90;;;;;;5083447;28;20040;-73
2023/01/07 03:38:45;;;;;;;20.77;10.85;;;10.90;99.90;;;;;;5086956;28;20078;-73
2023/01/07 03:42:38;;;;;;;17.92;11.00;;;10.90;99.90;;;;;;5078592;28;20052;-73
2023/01/07 03:44:01;;;;;;;15.63;9.60;;;10.90;99.90;;;;;;5087402;28;20388;-73
2023/01/07 03:46:29;;;;;;;15.15;10.43;;;10.90;99.90;;;;;;5089143;28;20069;-73
2023/01/07 03:48:56;;;;;;;18.65;11.27;;;10.80;99.90;;;;;;5083074;28;20776;-73
2023/01/07 03:51:24;;;;;;;15.90;10.68;;;10.80;99.90;;;;;;5068268;28;20119;-73
2023/01/07 03:53:51;;;;;;;23.35;12.52;;;10.80;99.90;;;;;;5086274;28;20044;-73
2023/01/07 03:56:19;;;;;;;18.30;11.32;;;10.80;99.90;;;;;;5064866;28;20132;-73
2023/01/07 03:58:47;;;;;;;17.23;10.88;;;10.80;99.90;;;;;;5069242;28;20090;-73
2023/01/07 04:01:14;;;;;;;14.55;9.45;;;10.80;99.90;;;;;;5067872;28;20147;-73
2023/01/07 04:03:42;;;;;;;20.23;12.18;;;10.80;99.90;;;;;;5064341;28;20048;-73
2023/01/07 04:06:09;;;;;;;17.33;11.13;;;10.80;99.90;;;;;;5080319;28;20048;-73
2023/01/07 04:08:37;;;;;;;18.45;11.63;;;10.80;99.90;;;;;;5086059;28;20063;-73
2023/01/07 04:11:05;;;;;;;20.13;11.13;;;10.80;99.90;;;;;;5072548;28;20044;-73
2023/01/07 04:13:33;;;;;;;19.42;11.55;;;10.80;99.90;;;;;;5083275;28;20127;-73
2023/01/07 04:16:00;;;;;;;18.50;12.75;;;10.80;99.90;;;;;;5081800;28;20553;-73
2023/01/07 04:18:28;;;;;;;22.80;13.07;;;10.70;99.90;;;;;;5087151;28;20052;-73
2023/01/07 04:20:55;;;;;;;16.75;11.57;;;10.70;99.90;;;;;;5088377;28;20477;-73
2023/01/07 04:23:23;;;;;;;15.75;10.25;;;10.70;99.90;;;;;;5087695;28;20402;-73
2023/01/07 04:25:53;;;;;;;17.88;10.88;;;10.70;99.90;;;;;;5087598;28;20150;-73
2023/01/07 04:28:23;;;;;;;16.25;10.20;;;10.70;99.90;;;;;;5087729;28;20364;-73
2023/01/07 04:30:50;;;;;;;17.90;11.60;;;10.60;99.90;;;;;;5070698;28;20100;-73
2023/01/07 04:33:19;;;;;;;19.48;11.40;;;10.70;99.90;;;;;;5067432;28;20059;-73
2023/01/07 04:35:47;;;;;;;20.73;9.98;;;10.60;99.90;;;;;;5060948;28;20135;-73
2023/01/07 04:38:15;;;;;;;20.02;12.30;;;10.70;99.90;;;;;;5088386;28;20121;-73
2023/01/07 04:40:43;;;;;;;22.67;14.20;;;10.60;99.90;;;;;;5087042;28;20036;-73
2023/01/07 04:43:11;;;;;;;19.45;11.63;;;10.60;99.90;;;;;;5083587;28;20505;-73
2023/01/07 04:45:39;;;;;;;17.35;12.05;;;10.70;99.90;;;;;;5077000;28;20063;-73
2023/01/07 04:48:07;;;;;;;16.65;10.40;;;10.70;99.90;;;;;;5061192;28;20067;-73
2023/01/07 04:50:34;;;;;;;18.45;11.48;;;10.70;99.90;;;;;;5087822;28;20478;-73
2023/01/07 04:53:02;;;;;;;19.38;11.32;;;10.70;99.90;;;;;;5087376;28;20035;-73
2023/01/07 04:55:30;;;;;;;18.83;11.13;;;10.70;99.90;;;;;;5070462;28;20044;-73
2023/01/07 04:57:58;;;;;;;17.88;10.82;;;10.70;99.90;;;;;;5048247;28;20083;-73
2023/01/07 05:00:27;;;;;;;14.90;10.45;;;10.70;99.90;;;;;;5069901;28;20401;-73
2023/01/07 05:02:55;;;;;;;15.90;11.50;;;10.70;99.90;;;;;;5086608;28;20048;-74
2023/01/07 05:05:22;;;;;;;18.70;11.30;;;10.70;99.90;;;;;;5064565;28;20497;-73
2023/01/07 05:07:50;;;;;;;17.45;11.48;;;10.70;99.90;;;;;;5074528;28;20054;-73
2023/01/07 05:10:19;;;;;;;20.98;11.00;;;10.70;99.90;;;;;;5076033;28;20043;-73
2023/01/07 05:12:47;;;;;;;29.33;15.00;;;10.70;99.90;;;;;;5064014;28;20139;-73
2023/01/07 05:15:17;;;;;;;22.23;14.57;;;10.70;99.90;;;;;;5087256;28;20044;-73
2023/01/07 05:17:44;;;;;;;22.65;12.98;;;10.60;99.90;;;;;;5070706;28;20074;-73
2023/01/07 05:20:14;;;;;;;22.60;12.90;;;10.50;99.90;;;;;;5081495;28;20045;-73
2023/01/07 05:22:41;;;;;;;36.00;18.63;;;10.40;99.90;;;;;;5082415;28;20040;-73
2023/01/07 05:25:09;;;;;;;62.53;19.00;;;10.40;99.90;;;;;;5067975;28;20044;-73
2023/01/07 05:27:37;;;;;;;42.63;13.25;;;10.20;99.90;;;;;;5050805;28;20632;-73
2023/01/07 05:30:06;;;;;;;35.60;13.32;;;10.00;99.90;;;;;;5049710;28;20058;-73
2023/01/07 05:32:34;;;;;;;34.22;13.50;;;9.90;99.90;;;;;;5072710;28;20101;-73
2023/01/07 05:35:02;;;;;;;24.23;12.93;;;9.90;99.90;;;;;;5087952;28;20114;-73
2023/01/07 05:37:29;;;;;;;24.92;11.55;;;9.80;99.90;;;;;;5080308;28;20124;-73
2023/01/07 05:39:57;;;;;;;90.03;37.85;;;9.80;99.90;;;;;;5069233;28;20090;-73
2023/01/07 05:42:24;;;;;;;89.18;44.55;;;9.70;99.90;;;;;;5073536;28;20485;-73
2023/01/07 05:44:52;;;;;;;64.45;37.13;;;9.80;99.90;;;;;;5074021;28;20053;-73
2023/01/07 05:47:19;;;;;;;58.05;24.38;;;9.90;99.90;;;;;;5086156;28;20056;-73
2023/01/07 05:49:47;;;;;;;34.75;20.10;;;9.90;99.90;;;;;;5079084;28;20055;-73
2023/01/07 05:52:14;;;;;;;34.50;20.05;;;10.00;99.90;;;;;;5067427;28;20048;-73
2023/01/07 05:54:42;;;;;;;28.52;16.92;;;10.10;99.90;;;;;;5046927;28;20151;-73
2023/01/07 05:57:10;;;;;;;30.52;16.33;;;10.10;99.90;;;;;;5085832;28;20058;-73
2023/01/07 05:59:37;;;;;;;27.48;15.00;;;10.20;99.90;;;;;;5074300;28;20045;-73
2023/01/07 06:02:05;;;;;;;22.30;13.82;;;10.30;99.90;;;;;;5080141;28;20055;-73
2023/01/07 06:04:33;;;;;;;20.95;12.63;;;10.30;99.90;;;;;;5074961;28;20072;-73
2023/01/07 06:07:00;;;;;;;24.30;13.43;;;10.40;99.90;;;;;;5086374;28;20048;-73
2023/01/07 06:09:31;;;;;;;46.40;16.85;;;10.40;99.90;;;;;;5091148;28;20052;-73
2023/01/07 06:11:58;;;;;;;27.08;15.77;;;10.50;99.90;;;;;;5084805;28;20094;-74
2023/01/07 06:14:26;;;;;;;32.38;14.90;;;10.50;99.90;;;;;;5082703;28;20099;-73
2023/01/07 06:16:53;;;;;;;49.30;17.77;;;10.50;99.90;;;;;;5072070;28;20125;-74
2023/01/07 06:19:21;;;;;;;35.25;14.90;;;10.50;99.90;;;;;;5073447;28;20055;-73
2023/01/07 06:21:49;;;;;;;53.47;18.33;;;10.60;99.90;;;;;;5090518;28;20093;-73
2023/01/07 06:24:16;;;;;;;39.75;15.52;;;10.60;99.90;;;;;;5086019;28;20074;-73
2023/01/07 06:26:44;;;;;;;62.63;19.08;;;10.60;99.90;;;;;;5067715;28;20445;-74
2023/01/07 06:29:11;;;;;;;43.53;16.80;;;10.60;99.90;;;;;;5071198;28;20044;-73
2023/01/07 06:31:39;;;;;;;53.67;17.10;;;10.60;99.90;;;;;;5082234;28;20091;-73
2023/01/07 06:34:06;;;;;;;106.72;21.63;;;10.60;99.90;;;;;;5084668;28;20071;-73
2023/01/07 06:36:34;;;;;;;34.50;15.32;;;10.50;99.90;;;;;;5090936;28;20046;-73
2023/01/07 06:39:02;;;;;;;56.47;17.88;;;10.50;99.90;;;;;;5085162;28;20048;-73
2023/01/07 06:41:29;;;;;;;82.40;21.55;;;10.50;99.90;;;;;;5073948;28;20159;-73
2023/01/07 06:43:57;;;;;;;76.05;20.30;;;10.60;99.90;;;;;;5079232;28;20574;-73
2023/01/07 06:46:25;;;;;;;66.63;21.95;;;10.50;99.90;;;;;;5085007;28;20470;-73
2023/01/07 06:48:52;;;;;;;109.68;32.88;;;10.60;99.90;;;;;;5072326;28;20070;-73
2023/01/07 06:51:20;;;;;;;75.90;38.35;;;10.60;99.90;;;;;;5080191;28;20122;-73
2023/01/07 06:53:47;;;;;;;61.10;27.40;;;10.70;99.90;;;;;;5084493;28;20059;-73
2023/01/07 06:56:15;;;;;;;33.70;20.52;;;10.70;99.90;;;;;;5089408;28;20047;-73
2023/01/07 06:58:42;;;;;;;34.20;16.80;;;10.80;99.90;;;;;;5065400;28;20121;-73
2023/01/07 07:01:10;;;;;;;28.48;13.38;;;10.80;99.90;;;;;;5069066;28;20040;-73
2023/01/07 07:03:38;;;;;;;24.23;13.73;;;10.90;99.90;;;;;;5082172;28;20055;-73
2023/01/07 07:06:06;;;;;;;23.40;14.52;;;10.90;99.90;;;;;;5089135;28;20587;-73
2023/01/07 07:08:34;;;;;;;27.65;13.65;;;11.10;99.90;;;;;;5063758;28;20048;-73
2023/01/07 07:11:01;;;;;;;31.95;15.85;;;11.10;99.90;;;;;;5071079;28;20056;-72
2023/01/07 07:13:29;;;;;;;23.95;12.95;;;11.20;99.90;;;;;;5083194;28;20044;-73
2023/01/07 07:15:56;;;;;;;25.90;15.27;;;11.30;99.90;;;;;;5062162;28;20558;-72
2023/01/07 07:18:25;;;;;;;21.13;12.35;;;11.30;99.90;;;;;;5090044;28;20048;-73
2023/01/07 07:20:53;;;;;;;20.95;12.77;;;11.50;99.90;;;;;;5089326;28;20579;-72
2023/01/07 07:23:20;;;;;;;28.30;13.55;;;11.70;99.90;;;;;;5090677;28;20044;-72
2023/01/07 07:25:48;;;;;;;19.50;12.13;;;11.90;99.90;;;;;;5089969;28;20481;-73
2023/01/07 07:28:16;;;;;;;22.88;12.18;;;12.20;99.90;;;;;;5090573;28;20055;-72
2023/01/07 07:30:43;;;;;;;19.55;11.95;;;12.50;99.90;;;;;;5081840;28;20143;-72
2023/01/07 07:33:13;;;;;;;21.63;12.98;;;13.10;99.90;;;;;;5085124;28;20044;-73
2023/01/07 07:35:41;;;;;;;19.48;11.77;;;14.30;99.90;;;;;;5091463;28;20063;-73
2023/01/07 07:38:08;;;;;;;17.38;11.38;;;15.40;99.90;;;;;;5090825;28;20468;-74
2023/01/07 07:40:36;;;;;;;16.80;9.95;;;16.60;99.90;;;;;;5089618;28;20135;-73
2023/01/07 07:43:03;;;;;;;15.02;10.45;;;17.80;99.90;;;;;;5085235;28;20048;-74
2023/01/07 07:45:31;;;;;;;14.70;9.50;;;19.10;99.90;;;;;;5076544;28;20117;-72
2023/01/07 07:47:59;;;;;;;16.40;9.35;;;20.00;99.90;;;;;;5064525;28;20055;-73
2023/01/07 07:50:27;;;;;;;14.88;9.50;;;20.70;99.90;;;;;;5073863;28;20145;-73
2023/01/07 07:52:54;;;;;;;15.85;9.55;;;21.10;99.90;;;;;;5077758;28;20124;-73
2023/01/07 07:55:22;;;;;;;13.10;8.95;;;21.30;99.90;;;;;;5071361;28;20469;-74
2023/01/07 07:57:53;;;;;;;14.65;8.50;;;21.30;99.90;;;;;;5078243;28;20132;-73
2023/01/07 08:00:20;;;;;;;15.50;8.52;;;21.20;99.90;;;;;;5076491;28;20572;-73
2023/01/07 08:02:48;;;;;;;12.30;8.63;;;21.10;99.90;;;;;;5067839;28;20055;-73
2023/01/07 08:05:16;;;;;;;11.52;7.93;;;21.00;99.90;;;;;;5078742;28;20114;-73
2023/01/07 08:07:43;;;;;;;13.68;9.15;;;20.90;99.90;;;;;;5070309;28;20588;-73
2023/01/07 08:10:11;;;;;;;13.73;8.50;;;20.80;99.90;;;;;;5075617;28;20043;-72
2023/01/07 08:12:39;;;;;;;14.52;9.00;;;20.70;99.90;;;;;;5081449;28;20044;-73
2023/01/07 08:15:07;;;;;;;13.88;9.30;;;20.60;99.90;;;;;;5083625;28;20059;-73
2023/01/07 08:17:35;;;;;;;12.13;8.15;;;20.60;99.90;;;;;;5086519;28;20056;-73
2023/01/07 08:20:04;;;;;;;15.80;9.38;;;20.50;99.90;;;;;;5072060;28;20059;-74
2023/01/07 08:22:34;;;;;;;14.73;9.27;;;20.50;99.90;;;;;;5089274;28;20482;-72
2023/01/07 08:25:02;;;;;;;12.00;8.05;;;20.50;99.90;;;;;;5087688;28;20067;-73
2023/01/07 08:27:30;;;;;;;16.13;9.48;;;20.50;99.90;;;;;;5089022;28;20085;-73
2023/01/07 08:29:57;;;;;;;16.08;9.10;;;20.50;99.90;;;;;;5087705;28;20398;-73
2023/01/07 08:32:25;;;;;;;13.95;9.43;;;20.50;99.90;;;;;;5086975;28;20721;-73
2023/01/07 08:34:52;;;;;;;16.35;9.95;;;20.40;99.90;;;;;;5087714;28;20521;-72
2023/01/07 08:37:20;;;;;;;16.80;10.20;;;20.30;99.90;;;;;;5088548;28;20161;-72
2023/01/07 08:39:47;;;;;;;15.10;10.95;;;20.20;99.90;;;;;;5088535;28;20047;-74
2023/01/07 08:42:15;;;;;;;14.60;10.75;;;19.90;99.90;;;;;;5087226;28;20097;-72
2023/01/07 08:44:42;;;;;;;19.42;10.55;;;19.70;99.90;;;;;;5088263;28;20040;-73
2023/01/07 08:47:10;;;;;;;16.77;10.82;;;19.50;99.90;;;;;;5080558;28;20106;-73
2023/01/07 08:49:37;;;;;;;16.60;10.02;;;19.30;99.90;;;;;;5079989;28;20721;-73
2023/01/07 08:52:05;;;;;;;17.40;10.32;;;19.00;99.90;;;;;;5072469;28;20044;-75
2023/01/07 08:54:33;;;;;;;21.23;11.00;;;18.90;99.90;;;;;;5077075;28;20047;-73
2023/01/07 08:57:00;;;;;;;18.15;12.13;;;18.80;99.90;;;;;;5083534;28;20182;-73
2023/01/07 08:59:28;;;;;;;17.27;10.98;;;18.70;99.90;;;;;;5076771;28;20040;-73
2023/01/07 09:01:56;;;;;;;16.13;10.63;;;18.70;99.90;;;;;;5077099;28;20043;-73
2023/01/07 09:04:23;;;;;;;16.05;9.63;;;18.60;99.90;;;;;;5080455;28;20059;-73
2023/01/07 09:06:51;;;;;;;12.98;9.80;;;18.60;99.90;;;;;;5084882;28;20055;-73
2023/01/07 09:09:19;;;;;;;16.88;10.02;;;18.60;99.90;;;;;;5080152;28;20123;-73
2023/01/07 09:11:46;;;;;;;15.60;9.52;;;18.70;99.90;;;;;;5084420;28;20507;-72
2023/01/07 09:14:14;;;;;;;16.85;10.82;;;18.70;99.90;;;;;;5081126;28;20048;-74
2023/01/07 09:16:41;;;;;;;17.33;10.65;;;18.80;99.90;;;;;;5081367;28;20055;-73
2023/01/07 09:19:09;;;;;;;30.10;11.95;;;18.90;99.90;;;;;;5079609;28;20040;-73
2023/01/07 09:21:36;;;;;;;19.13;11.00;;;19.00;99.90;;;;;;5067946;28;20051;-73
2023/01/07 09:24:04;;;;;;;13.70;8.63;;;19.10;99.90;;;;;;5083213;28;20044;-73
2023/01/07 09:26:32;;;;;;;13.90;8.48;;;19.30;99.90;;;;;;5069970;28;20040;-73
2023/01/07 09:28:59;;;;;;;12.50;6.97;;;19.30;99.90;;;;;;5088218;28;20119;-73
2023/01/07 09:31:27;;;;;;;15.18;7.45;;;19.20;99.90;;;;;;5069774;28;20866;-74
2023/01/07 09:33:54;;;;;;;10.98;7.05;;;19.30;99.90;;;;;;5086294;28;20485;-73
2023/01/07 09:36:22;;;;;;;9.70;5.45;;;19.20;99.90;;;;;;5087889;28;20531;-72
2023/01/07 09:38:50;;;;;;;13.98;6.53;;;19.20;99.90;;;;;;5076936;28;20469;-73
2023/01/07 09:41:30;;;;;;;11.93;6.15;;;19.10;99.90;;;;;;5070301;28;20053;-74
2023/01/07 09:44:12;;;;;;;13.57;7.07;;;18.80;99.90;;;;;;5089923;28;20044;-74
2023/01/07 09:46:41;;;;;;;10.15;5.60;;;18.60;99.90;;;;;;5091498;28;20154;-73
2023/01/07 09:49:17;;;;;;;10.35;7.57;;;18.60;99.90;;;;;;5091449;28;20040;-76
2023/01/07 09:51:53;;;;;;;10.38;6.55;;;18.70;99.90;;;;;;5091917;28;20439;-74
2023/01/07 09:54:34;;;;;;;10.10;6.63;;;18.60;99.90;;;;;;5091597;28;20490;-73
2023/01/07 09:57:02;;;;;;;10.32;6.30;;;18.60;99.90;;;;;;5090621;28;20456;-74
2023/01/07 09:59:30;;;;;;;11.45;7.00;;;18.50;99.90;;;;;;5073252;28;20112;-74
2023/01/07 10:02:14;;;;;;;9.75;5.00;;;18.60;99.90;;;;;;5090572;28;20398;-73
2023/01/07 10:04:51;;;;;;;7.75;4.93;;;18.50;99.90;;;;;;5082392;28;20114;-73
2023/01/07 10:07:32;;;;;;;9.93;5.32;;;18.40;99.90;;;;;;5067320;28;20068;-73
2023/01/07 10:10:11;;;;;;;8.25;5.65;;;18.30;99.90;;;;;;5066187;28;20040;-74
2023/01/07 10:13:15;;;;;;;10.02;4.75;;;18.20;99.90;;;;;;5076207;28;20441;-74
2023/01/07 10:16:20;;;;;;;11.40;5.55;;;18.50;99.90;;;;;;5072891;28;20062;-73
2023/01/07 10:18:57;;;;;;;9.65;5.00;;;18.80;99.90;;;;;;5091261;28;20130;-74
2023/01/07 10:21:34;;;;;;;14.88;6.63;;;19.00;99.90;;;;;;5089869;28;20054;-74
2023/01/07 10:24:17;;;;;;;9.63;5.22;;;19.30;99.90;;;;;;5090285;28;20380;-74
2023/01/07 10:26:52;;;;;;;7.35;4.30;;;19.40;99.90;;;;;;5090555;28;20150;-74
2023/01/07 10:29:27;;;;;;;9.10;4.50;;;19.80;99.90;;;;;;5091022;28;20097;-74
2023/01/07 10:32:00;;;;;;;7.07;5.15;;;19.80;99.90;;;;;;5089526;28;20050;-73
2023/01/07 10:34:34;;;;;;;6.93;5.25;;;19.50;99.90;;;;;;5065866;28;20090;-74
2023/01/07 10:37:06;;;;;;;7.20;4.95;;;19.30;99.90;;;;;;5089781;28;20474;-73
2023/01/07 10:39:41;;;;;;;9.73;4.90;;;19.00;99.90;;;;;;5088383;28;20048;-74
2023/01/07 10:42:41;;;;;;;10.43;5.88;;;18.70;99.90;;;;;;5088670;28;20501;-74
2023/01/07 10:45:24;;;;;;;6.60;4.97;;;18.60;99.90;;;;;;5069067;28;20067;-73
2023/01/07 10:48:01;;;;;;;9.75;5.10;;;18.50;99.90;;;;;;5071875;28;20056;-74
2023/01/07 10:50:28;;;;;;;6.65;4.95;;;18.20;99.90;;;;;;5090062;28;20164;-74
2023/01/07 10:53:44;;;;;;;11.30;5.47;;;18.10;99.90;;;;;;5088586;28;20097;-73
2023/01/07 10:56:26;;;;;;;7.25;4.40;;;18.10;99.90;;;;;;5007787;28;20490;-74
2023/01/07 10:58:54;;;;;;;10.32;4.90;;;18.20;99.90;;;;;;5007535;28;20050;-73
2023/01/07 11:01:33;;;;;;;8.50;5.57;;;18.50;99.90;;;;;;5035981;28;20052;-73
2023/01/07 11:04:00;;;;;;;10.23;6.28;;;18.60;99.90;;;;;;5081683;28;20071;-75
2023/01/07 11:06:44;;;;;;;10.32;6.10;;;18.40;99.90;;;;;;5090312;28;20101;-72
2023/01/07 11:09:42;;;;;;;11.73;6.85;;;18.10;99.90;;;;;;5072817;28;20521;-74
2023/01/07 11:12:23;;;;;;;9.82;5.32;;;17.90;99.90;;;;;;5071299;28;20048;-73
2023/01/07 11:14:55;;;;;;;8.05;5.82;;;18.00;99.90;;;;;;5088318;28;20063;-73
2023/01/07 11:17:58;;;;;;;7.93;5.97;;;18.00;99.90;;;;;;5069276;28;20452;-74
2023/01/07 11:20:43;;;;;;;9.70;5.20;;;18.00;99.90;;;;;;5067860;28;20044;-73
2023/01/07 11:23:20;;;;;;;9.63;5.65;;;17.90;99.90;;;;;;5074632;28;20157;-73
2023/01/07 11:25:48;;;;;;;19.05;8.52;;;17.90;99.90;;;;;;5055469;28;20058;-75
2023/01/07 11:28:21;;;;;;;13.18;5.25;;;18.00;99.90;;;;;;5088700;28;20048;-73
2023/01/07 11:30:59;;;;;;;9.10;4.75;;;18.20;99.90;;;;;;5089244;28;20044;-74
2023/01/07 11:33:39;;;;;;;7.13;4.30;;;18.30;99.90;;;;;;5089744;28;20071;-74
2023/01/07 11:36:07;;;;;;;7.40;4.38;;;18.50;99.90;;;;;;5089366;28;20516;-74
2023/01/07 11:38:37;;;;;;;5.20;3.90;;;18.50;99.90;;;;;;5088586;28;20117;-73
2023/01/07 11:41:17;;;;;;;15.75;5.20;;;18.70;99.90;;;;;;5071927;28;20056;-73
2023/01/07 11:43:49;;;;;;;8.80;4.72;;;18.90;99.90;;;;;;5055271;28;20135;-74
2023/01/07 11:46:17;;;;;;;7.60;4.95;;;19.00;99.90;;;;;;5055175;28;20075;-74
2023/01/07 11:49:02;;;;;;;9.23;5.85;;;19.10;99.90;;;;;;5089434;28;20511;-73
2023/01/07 11:51:39;;;;;;;9.23;4.25;;;19.00;99.90;;;;;;5088317;28;20402;-73
2023/01/07 11:54:21;;;;;;;6.30;4.38;;;18.60;99.90;;;;;;5089194;28;20044;-76
2023/01/07 11:56:49;;;;;;;9.30;4.43;;;18.40;99.90;;;;;;5087669;28;20109;-72
2023/01/07 11:59:19;;;;;;;8.57;4.57;;;18.20;99.90;;;;;;5089567;28;20048;-72
2023/01/07 12:02:11;;;;;;;7.78;5.20;;;17.90;99.90;;;;;;5088219;28;20410;-73
2023/01/07 12:04:40;;;;;;;7.72;4.72;;;17.60;99.90;;;;;;5079409;28;20135;-73
2023/01/07 12:07:14;;;;;;;9.57;6.10;;;17.50;99.90;;;;;;5063811;28;20045;-73
2023/01/07 12:09:44;;;;;;;8.50;5.60;;;17.60;99.90;;;;;;5050520;28;20501;-74
2023/01/07 12:12:33;;;;;;;11.18;5.75;;;17.70;99.90;;;;;;5050501;28;20059;-73
2023/01/07 12:15:05;;;;;;;12.85;8.48;;;17.90;99.90;;;;;;5051316;28;20044;-73
2023/01/07 12:17:34;;;;;;;8.80;4.97;;;17.80;99.90;;;;;;5085145;28;20055;-74
2023/01/07 12:20:31;;;;;;;7.28;4.63;;;17.80;99.90;;;;;;5087798;28;20044;-73
2023/01/07 12:23:16;;;;;;;12.07;5.07;;;17.70;99.90;;;;;;5089021;28;20044;-74
2023/01/07 12:26:10;;;;;;;10.50;5.03;;;17.70;99.90;;;;;;5087525;28;20060;-73
2023/01/07 12:28:49;;;;;;;16.08;6.30;;;17.80;99.90;;;;;;5053690;28;20082;-74
2023/01/07 12:31:25;;;;;;;6.25;4.97;;;17.90;99.90;;;;;;5087566;28;20052;-73
2023/01/07 12:34:11;;;;;;;8.65;4.15;;;17.90;99.90;;;;;;5087081;28;20047;-73
2023/01/07 12:36:49;;;;;;;9.10;4.25;;;17.80;99.90;;;;;;5088276;28;20045;-73
2023/01/07 12:39:34;;;;;;;8.73;4.57;;;18.00;99.90;;;;;;5070750;28;20048;-73
2023/01/07 12:42:14;;;;;;;8.48;4.43;;;18.10;99.90;;;;;;5088265;28;20058;-73
2023/01/07 12:44:56;;;;;;;8.30;4.78;;;18.20;99.90;;;;;;5086370;28;20044;-73
2023/01/07 12:47:31;;;;;;;5.72;3.42;;;18.30;99.90;;;;;;5087267;28;20198;-74
2023/01/07 12:50:11;;;;;;;6.60;3.88;;;18.20;99.90;;;;;;5088833;28;20082;-73
2023/01/07 12:52:58;;;;;;;7.32;5.53;;;17.90;99.90;;;;;;5086913;28;20143;-72
2023/01/07 12:55:35;;;;;;;8.80;5.25;;;17.60;99.90;;;;;;5086215;28;20565;-73
2023/01/07 12:58:31;;;;;;;9.93;4.70;;;17.10;99.90;;;;;;5070106;28;20035;-73
2023/01/07 13:01:17;;;;;;;9.35;4.40;;;17.00;99.90;;;;;;5069957;28;20122;-75
2023/01/07 13:04:28;;;;;;;6.65;4.53;;;16.80;99.90;;;;;;5082841;28;20131;-74